createdAt,value
2019-03-27T00:00:02.029Z,95322.43
2019-03-27T00:02:28.789Z,95323.22
2019-03-27T00:04:55.111Z,95319.23
2019-03-27T00:07:21.432Z,95315.88
2019-03-27T00:09:47.826Z,95315.14
2019-03-27T00:12:14.157Z,95317.00
2019-03-27T00:14:40.543Z,95315.59
2019-03-27T00:17:06.866Z,95317.09
2019-03-27T00:19:33.199Z,95314.73
2019-03-27T00:21:59.530Z,95308.67
2019-03-27T00:24:26.064Z,95313.73
2019-03-27T00:26:52.401Z,95313.11
2019-03-27T00:29:18.726Z,95307.84
2019-03-27T00:31:45.078Z,95317.77
2019-03-27T00:34:11.418Z,95320.83
2019-03-27T00:36:37.811Z,95319.14
2019-03-27T00:39:04.202Z,95315.16
2019-03-27T00:41:30.585Z,95316.66
2019-03-27T00:43:57.122Z,95315.38
2019-03-27T00:46:23.441Z,95314.55
2019-03-27T00:48:49.831Z,95319.14
2019-03-27T00:51:16.169Z,95315.59
2019-03-27T00:53:42.711Z,95319.23
2019-03-27T00:56:09.063Z,95313.02
2019-03-27T00:58:35.393Z,95314.77
2019-03-27T01:01:01.773Z,95316.50
2019-03-27T01:03:28.122Z,95327.84
2019-03-27T01:08:48.888Z,95323.11
2019-03-27T01:11:15.226Z,95330.66
2019-03-27T14:44:34.385Z,95380.73
2019-03-27T14:47:00.783Z,95382.26
2019-03-27T14:49:27.214Z,95379.91
2019-03-27T14:52:07.430Z,95376.87
2019-03-27T14:54:19.915Z,95390.38
2019-03-27T14:56:46.280Z,95386.38
2019-03-27T14:59:12.641Z,95394.72
2019-03-27T15:01:39.060Z,95388.38
2019-03-27T15:04:05.426Z,95389.56
2019-03-27T15:06:31.804Z,95391.77
2019-03-27T15:08:58.205Z,95384.63
2019-03-27T15:11:24.599Z,95392.00
2019-03-27T15:13:51.031Z,95397.77
2019-03-27T15:16:17.411Z,95394.12
2019-03-27T15:18:44.917Z,95401.06
2019-03-27T15:21:11.413Z,95402.48
2019-03-27T15:23:37.681Z,95401.88
2019-03-27T15:26:04.084Z,95395.20
2019-03-27T15:28:30.521Z,95402.59
2019-03-27T15:30:56.853Z,95401.06
2019-03-27T15:33:23.189Z,95400.47
2019-03-27T15:35:49.519Z,95405.17
2019-03-27T15:38:15.876Z,95412.09
2019-03-27T15:40:42.213Z,95412.58
2019-03-27T15:43:08.592Z,95415.27
2019-03-27T15:45:34.943Z,95412.69
2019-03-27T15:48:01.352Z,95408.45
2019-03-27T15:50:27.722Z,95411.86
2019-03-27T15:52:54.072Z,95414.09
2019-03-27T15:55:22.943Z,95421.97
2019-03-27T15:57:49.246Z,95419.71
2019-03-27T16:00:15.613Z,95423.95
2019-03-27T16:02:42.077Z,95428.19
2019-03-27T16:05:08.455Z,95433.45
2019-03-27T16:07:34.839Z,95432.76
2019-03-27T16:10:01.203Z,95432.52
2019-03-27T16:12:27.541Z,95434.28
2019-03-27T16:14:53.875Z,95439.44
2019-03-27T16:17:20.358Z,95442.50
2019-03-27T16:19:46.768Z,95445.67
2019-03-27T16:22:13.121Z,95446.24
2019-03-27T16:24:39.531Z,95445.42
2019-03-27T16:27:05.866Z,95456.70
2019-03-27T16:29:32.132Z,95455.88
2019-03-27T16:31:58.497Z,95451.88
2019-03-27T16:34:25.319Z,95462.09
2019-03-27T16:36:54.152Z,95468.09
2019-03-27T16:39:17.648Z,95471.73
2019-03-27T16:41:44.024Z,95474.18
2019-03-27T16:44:10.355Z,95472.43
2019-03-27T16:46:36.709Z,95472.53
2019-03-27T16:49:03.047Z,95476.53
2019-03-27T16:51:29.436Z,95484.97
2019-03-27T16:53:55.830Z,95488.58
2019-03-27T16:56:22.163Z,95495.53
2019-03-27T16:58:48.513Z,95499.73
2019-03-27T17:01:14.878Z,95503.37
2019-03-27T17:03:41.225Z,95501.48
2019-03-27T17:06:07.592Z,95505.72
2019-03-27T17:08:33.929Z,95510.05
2019-03-27T17:11:00.261Z,95511.91
2019-03-27T17:13:26.595Z,95518.13
2019-03-27T17:15:52.933Z,95527.05
2019-03-27T17:18:19.320Z,95527.98
2019-03-27T17:20:45.697Z,95540.52
2019-03-27T17:23:17.958Z,95550.61
2019-03-27T17:25:38.398Z,95557.65
2019-03-27T17:28:04.720Z,95565.13
2019-03-27T17:30:32.108Z,95567.83
2019-03-27T17:32:57.486Z,95568.02
2019-03-27T17:35:23.841Z,95575.52
2019-03-27T17:37:50.248Z,95575.84
2019-03-27T17:40:16.633Z,95574.77
2019-03-27T17:42:43.100Z,95584.63
2019-03-27T17:45:09.443Z,95588.81
2019-03-27T17:47:35.767Z,95589.41
2019-03-27T17:50:02.100Z,95601.60
2019-03-27T17:52:28.428Z,95608.23
2019-03-27T17:54:54.752Z,95610.58
2019-03-27T17:57:21.179Z,95612.33
2019-03-27T17:59:47.563Z,95614.66
2019-03-27T18:02:13.935Z,95615.34
2019-03-27T18:04:40.316Z,95621.91
2019-03-27T18:07:06.672Z,95630.20
2019-03-27T18:09:33.015Z,95644.39
2019-03-27T18:12:01.594Z,95642.00
2019-03-27T18:14:27.997Z,95649.77
2019-03-27T18:16:54.387Z,95647.77
2019-03-27T18:19:20.736Z,95649.73
2019-03-27T18:21:47.076Z,95651.23
2019-03-27T18:24:13.518Z,95655.20
2019-03-27T18:26:39.860Z,95652.28
2019-03-27T18:29:06.193Z,95652.95
2019-03-27T18:31:32.540Z,95653.41
2019-03-27T18:33:58.931Z,95656.20
2019-03-27T18:36:25.253Z,95657.37
2019-03-27T18:38:51.636Z,95662.86
2019-03-27T18:41:17.990Z,95662.41
2019-03-27T18:43:44.322Z,95662.70
2019-03-27T18:46:10.706Z,95667.41
2019-03-27T18:48:37.036Z,95667.41
2019-03-27T18:51:03.356Z,95661.05
2019-03-27T18:53:29.694Z,95662.45
2019-03-27T18:55:56.054Z,95667.36
2019-03-27T18:58:22.382Z,95660.46
2019-03-27T19:00:48.736Z,95662.30
2019-03-27T19:03:15.028Z,95659.27
2019-03-27T19:05:41.416Z,95662.02
2019-03-27T19:08:07.769Z,95662.94
2019-03-27T19:10:34.089Z,95669.75
2019-03-27T19:13:00.418Z,95666.09
2019-03-27T19:15:26.755Z,95667.38
2019-03-27T19:17:53.105Z,95666.64
2019-03-27T19:20:19.616Z,95670.79
2019-03-27T19:22:46.056Z,95671.45
2019-03-27T19:25:12.456Z,95673.58
2019-03-27T19:27:38.744Z,95679.73
2019-03-27T19:30:05.075Z,95674.70
2019-03-27T19:32:31.465Z,95685.47
2019-03-27T19:34:57.850Z,95680.89
2019-03-27T19:37:24.190Z,95682.64
2019-03-27T19:39:50.521Z,95692.13
2019-03-27T19:42:16.945Z,95686.14
2019-03-27T19:44:43.305Z,95680.27
2019-03-27T19:47:09.640Z,95682.73
2019-03-27T19:49:35.986Z,95683.89
2019-03-27T19:52:02.350Z,95684.80
2019-03-27T19:54:28.708Z,95684.18
2019-03-27T19:56:55.032Z,95686.05
2019-03-27T19:59:21.401Z,95687.34
2019-03-27T20:01:47.744Z,95683.19
2019-03-27T20:04:14.048Z,95688.34
2019-03-27T20:06:40.377Z,95686.34
2019-03-27T20:09:06.715Z,95691.24
2019-03-27T20:11:33.207Z,95699.05
2019-03-27T20:13:59.388Z,95695.31
2019-03-27T20:16:25.761Z,95703.58
2019-03-27T20:18:52.139Z,95699.38
2019-03-27T20:21:18.468Z,95697.27
2019-03-27T20:23:44.829Z,95696.06
2019-03-27T20:26:11.167Z,95698.38
2019-03-27T20:28:37.582Z,95709.26
2019-03-27T20:31:04.064Z,95707.97
2019-03-27T20:33:30.461Z,95710.63
2019-03-27T20:35:56.810Z,95715.90
2019-03-27T20:38:23.225Z,95717.73
2019-03-27T20:40:49.646Z,95721.25
2019-03-27T20:43:15.886Z,95721.91
2019-03-27T20:45:42.362Z,95720.97
2019-03-27T20:48:08.630Z,95728.89
2019-03-27T20:50:34.953Z,95725.60
2019-03-27T20:53:01.311Z,95732.95
2019-03-27T20:55:30.654Z,95737.19
2019-03-27T20:57:54.088Z,95739.51
2019-03-27T21:00:20.393Z,95737.84
2019-03-27T21:02:46.725Z,95741.80
2019-03-27T21:05:13.140Z,95743.20
2019-03-27T21:07:39.459Z,95743.91
2019-03-27T21:10:05.803Z,95747.63
2019-03-27T21:12:32.169Z,95745.14
2019-03-27T21:14:58.570Z,95755.44
2019-03-27T21:17:24.916Z,95750.48
2019-03-27T21:19:51.256Z,95745.88
2019-03-27T21:22:17.583Z,95744.22
2019-03-27T21:24:43.969Z,95748.65
2019-03-27T21:27:10.276Z,95753.96
2019-03-27T21:29:36.601Z,95755.73
2019-03-27T21:32:03.035Z,95755.73
2019-03-27T21:34:29.390Z,95757.30
2019-03-27T21:36:55.720Z,95751.70
2019-03-27T21:39:22.113Z,95757.38
2019-03-27T21:41:48.398Z,95760.07
2019-03-27T21:44:14.718Z,95758.98
2019-03-27T21:46:41.045Z,95755.58
2019-03-27T21:49:07.423Z,95762.92
2019-03-27T21:51:33.796Z,95759.55
2019-03-27T21:54:00.126Z,95759.37
2019-03-27T21:56:26.449Z,95759.71
2019-03-27T21:58:55.562Z,95764.97
2019-03-27T22:01:21.926Z,95760.73
2019-03-27T22:03:48.285Z,95765.05
2019-03-27T22:06:14.656Z,95763.50
2019-03-27T22:08:40.992Z,95766.45
2019-03-27T22:11:07.371Z,95765.81
2019-03-27T22:13:33.710Z,95767.55
2019-03-27T22:16:00.074Z,95766.46
2019-03-27T22:18:26.401Z,95766.09
2019-03-27T22:20:52.741Z,95770.06
2019-03-27T22:23:19.082Z,95769.69
2019-03-27T22:25:45.477Z,95773.09
2019-03-27T22:28:11.746Z,95770.59
2019-03-27T22:30:38.093Z,95771.61
2019-03-27T22:33:04.430Z,95780.54
2019-03-27T22:35:30.889Z,95783.30
2019-03-27T22:37:57.300Z,95788.80
2019-03-27T22:40:23.791Z,95789.44
2019-03-27T22:42:50.130Z,95794.43
2019-03-27T22:45:16.461Z,95794.05
2019-03-27T22:47:42.825Z,95795.07
2019-03-27T22:50:09.178Z,95787.05
2019-03-27T22:52:35.560Z,95796.17
2019-03-27T22:55:01.893Z,95797.08
2019-03-27T22:57:28.259Z,95798.63
2019-03-27T22:59:54.597Z,95801.05
2019-03-27T23:02:20.984Z,95803.17
2019-03-27T23:04:47.318Z,95804.08
2019-03-27T23:07:13.682Z,95809.30
2019-03-27T23:09:40.024Z,95807.02
2019-03-27T23:12:06.417Z,95808.58
2019-03-27T23:14:32.766Z,95809.14
2019-03-27T23:16:59.155Z,95812.06
2019-03-27T23:19:25.484Z,95816.94
2019-03-27T23:21:51.841Z,95815.84
2019-03-27T23:24:18.215Z,95815.66
2019-03-27T23:26:44.552Z,95810.23
2019-03-27T23:29:10.882Z,95813.34
2019-03-27T23:31:37.213Z,95810.31
2019-03-27T23:34:03.595Z,95813.64
2019-03-27T23:36:29.940Z,95815.76
2019-03-27T23:38:56.329Z,95816.10
2019-03-27T23:41:22.659Z,95816.10
2019-03-27T23:43:49.120Z,95816.59
2019-03-27T23:46:15.367Z,95813.53
2019-03-27T23:48:41.698Z,95819.23
2019-03-27T23:51:08.052Z,95817.95
2019-03-27T23:53:34.371Z,95809.86
2019-03-27T23:56:00.712Z,95813.72
2019-03-27T23:58:27.043Z,95808.68
